createdAt,value
2018-05-15T00:00:59.714Z,83.30
2018-05-15T00:03:27.139Z,83.00
2018-05-15T00:05:54.618Z,83.30
2018-05-15T00:08:22.098Z,83.00
2018-05-15T00:10:49.523Z,83.60
2018-05-15T00:13:16.987Z,82.80
2018-05-15T00:15:44.398Z,83.80
2018-05-15T00:18:12.598Z,84.50
2018-05-15T00:20:40.906Z,82.40
2018-05-15T00:23:08.442Z,82.50
2018-05-15T00:25:35.866Z,83.00
2018-05-15T00:28:04.054Z,83.60
2018-05-15T00:30:32.259Z,83.50
2018-05-15T00:32:59.712Z,83.50
2018-05-15T00:35:27.194Z,83.40
2018-05-15T00:37:54.620Z,83.30
2018-05-15T00:40:22.079Z,84.00
2018-05-15T00:42:49.506Z,84.50
2018-05-15T00:45:17.698Z,85.80
2018-05-15T00:47:45.130Z,85.80
2018-05-15T00:50:12.562Z,84.30
2018-05-15T00:52:39.986Z,84.70
2018-05-15T00:55:19.361Z,84.20
2018-05-15T00:57:47.123Z,84.40
2018-05-15T01:00:14.563Z,83.40
2018-05-15T01:02:42.942Z,83.70
2018-05-15T01:05:10.363Z,84.80
2018-05-15T01:07:37.793Z,85.00
2018-05-15T01:10:05.404Z,85.40
2018-05-15T01:12:32.870Z,86.20
2018-05-15T01:15:00.366Z,84.00
2018-05-15T01:17:27.793Z,85.40
2018-05-15T01:19:55.218Z,85.20
2018-05-15T01:22:22.693Z,84.30
2018-05-15T01:24:50.117Z,85.90
2018-05-15T01:27:18.983Z,85.20
2018-05-15T01:29:46.454Z,85.10
2018-05-15T01:32:14.645Z,86.10
2018-05-15T01:34:42.885Z,84.60
2018-05-15T01:37:10.313Z,84.60
2018-05-15T01:39:37.765Z,85.30
2018-05-15T01:44:57.815Z,85.80
2018-05-15T01:47:25.540Z,84.60
2018-05-15T01:49:53.047Z,85.40
2018-05-15T01:52:21.246Z,87.80
2018-05-15T01:54:49.445Z,86.40
2018-05-15T01:57:16.929Z,86.40
2018-05-15T01:59:45.157Z,87.80
2018-05-15T02:02:12.590Z,86.90
2018-05-15T02:04:40.782Z,86.00
2018-05-15T02:07:08.251Z,86.20
2018-05-15T02:09:35.767Z,86.90
2018-05-15T02:12:03.891Z,87.50
2018-05-15T02:14:31.703Z,87.40
2018-05-15T02:16:59.139Z,86.70
2018-05-15T02:19:26.565Z,87.80
2018-05-15T02:21:54.143Z,88.50
2018-05-15T02:24:21.602Z,87.90
2018-05-15T02:26:49.797Z,89.30
2018-05-15T02:29:17.229Z,89.40
2018-05-15T02:31:44.665Z,88.80
2018-05-15T02:34:12.142Z,89.00
2018-05-15T02:36:39.614Z,89.60
2018-05-15T02:39:07.823Z,89.60
2018-05-15T02:41:36.087Z,90.00
2018-05-15T02:44:03.719Z,90.00
2018-05-15T02:46:31.178Z,87.60
2018-05-15T02:48:58.642Z,89.30
2018-05-15T02:51:26.084Z,89.80
2018-05-15T02:53:53.518Z,90.00
2018-05-15T02:56:22.001Z,90.30
2018-05-15T02:58:49.436Z,90.20
2018-05-15T03:01:17.635Z,90.60
2018-05-15T03:03:45.142Z,90.60
2018-05-15T03:06:12.574Z,91.10
2018-05-15T03:08:40.019Z,90.20
2018-05-15T03:11:07.455Z,90.50
2018-05-15T03:13:35.666Z,91.60
2018-05-15T03:16:03.127Z,91.60
2018-05-15T03:18:30.559Z,91.60
2018-05-15T03:20:57.988Z,91.80
2018-05-15T03:23:26.197Z,91.70
2018-05-15T03:25:53.665Z,91.70
2018-05-15T03:28:21.358Z,92.10
2018-05-15T03:30:48.885Z,91.60
2018-05-15T03:33:16.594Z,91.80
2018-05-15T03:35:44.038Z,91.70
2018-05-15T03:38:11.592Z,91.10
2018-05-15T03:40:39.020Z,91.40
2018-05-15T03:43:06.761Z,90.60
2018-05-15T03:45:34.962Z,91.10
2018-05-15T03:48:02.422Z,91.10
2018-05-15T03:50:30.398Z,90.70
2018-05-15T03:52:57.834Z,91.80
2018-05-15T03:55:25.288Z,91.70
2018-05-15T03:57:54.486Z,91.30
2018-05-15T04:00:33.842Z,91.30
2018-05-15T04:03:13.282Z,91.40
2018-05-15T04:05:52.618Z,90.70
2018-05-15T04:08:20.070Z,91.60
2018-05-15T04:10:47.518Z,91.40
2018-05-15T04:13:15.728Z,90.90
2018-05-15T04:15:43.958Z,90.90
2018-05-15T04:18:11.453Z,91.00
2018-05-15T04:20:38.921Z,91.00
2018-05-15T04:23:06.464Z,90.80
2018-05-15T04:25:33.890Z,90.60
2018-05-15T04:28:01.444Z,91.10
2018-05-15T04:30:28.817Z,90.50
2018-05-15T04:32:56.263Z,91.00
2018-05-15T04:35:23.821Z,91.50
2018-05-15T04:37:51.202Z,92.20
2018-05-15T04:40:18.649Z,92.30
2018-05-15T04:42:46.074Z,92.80
2018-05-15T04:45:18.327Z,93.10
2018-05-15T04:47:45.770Z,93.10
2018-05-15T04:50:13.199Z,92.70
2018-05-15T04:52:40.742Z,92.10
2018-05-15T04:55:08.188Z,92.10
2018-05-15T04:57:35.777Z,91.90
2018-05-15T05:00:03.438Z,92.00
2018-05-15T05:02:30.914Z,90.90
2018-05-15T05:04:58.437Z,90.70
2018-05-15T05:07:25.885Z,89.10
2018-05-15T05:09:53.342Z,87.70
2018-05-15T05:12:21.534Z,86.20
2018-05-15T05:14:49.318Z,86.20
2018-05-15T05:17:16.750Z,84.20
2018-05-15T05:19:44.939Z,83.60
2018-05-15T05:22:12.402Z,82.50
2018-05-15T05:24:39.838Z,82.00
2018-05-15T05:27:07.471Z,81.50
2018-05-15T05:29:34.829Z,78.90
2018-05-15T05:32:03.031Z,76.80
2018-05-15T05:34:30.842Z,76.80
2018-05-15T05:36:58.386Z,78.80
2018-05-15T05:39:26.886Z,76.10
2018-05-15T05:41:54.340Z,75.20
2018-05-15T05:44:21.799Z,74.50
2018-05-15T05:46:49.206Z,75.90
2018-05-15T05:49:16.674Z,74.70
2018-05-15T05:51:48.336Z,74.80
2018-05-15T05:54:16.676Z,75.20
2018-05-15T05:56:44.095Z,74.70
2018-05-15T05:59:11.522Z,73.10
2018-05-15T06:01:39.002Z,71.40
2018-05-15T06:04:06.475Z,70.10
2018-05-15T06:06:33.879Z,71.80
2018-05-15T06:09:02.187Z,69.80
2018-05-15T06:11:29.625Z,69.80
2018-05-15T06:13:57.075Z,71.40
2018-05-15T06:16:25.275Z,71.90
2018-05-15T06:19:08.545Z,71.90
2018-05-15T06:21:36.165Z,68.30
2018-05-15T06:24:03.650Z,68.50
2018-05-15T06:29:05.002Z,64.80
2018-05-15T06:31:32.449Z,64.80
2018-05-15T06:33:59.913Z,66.30
2018-05-15T06:36:27.392Z,65.10
2018-05-15T06:38:54.819Z,65.00
2018-05-15T06:41:22.255Z,62.10
2018-05-15T06:43:49.846Z,61.30
2018-05-15T06:46:17.295Z,62.50
2018-05-15T06:48:44.734Z,60.40
2018-05-15T06:51:12.207Z,60.60
2018-05-15T06:53:39.648Z,59.30
2018-05-15T06:56:07.099Z,60.10
2018-05-15T06:58:35.306Z,59.80
2018-05-15T07:01:03.798Z,59.80
2018-05-15T07:03:31.362Z,58.20
2018-05-15T07:05:58.796Z,57.90
2018-05-15T07:08:26.306Z,57.00
2018-05-15T07:10:53.738Z,54.90
2018-05-15T07:13:21.163Z,54.70
2018-05-15T07:15:49.979Z,54.20
2018-05-15T07:18:17.421Z,54.20
2018-05-15T07:20:45.195Z,55.80
2018-05-15T07:23:12.751Z,52.00
2018-05-15T07:25:40.187Z,51.40
2018-05-15T07:28:07.670Z,51.30
2018-05-15T07:30:35.129Z,51.80
2018-05-15T07:33:02.640Z,52.80
2018-05-15T07:35:30.298Z,50.90
2018-05-15T07:37:57.674Z,51.40
2018-05-15T07:40:25.105Z,51.70
2018-05-15T07:42:54.080Z,47.80
2018-05-15T07:45:21.527Z,47.70
2018-05-15T07:47:50.015Z,48.00
2018-05-15T07:50:17.439Z,47.80
2018-05-15T07:52:44.907Z,46.50
2018-05-15T07:55:12.332Z,46.30
2018-05-15T07:57:40.518Z,43.80
2018-05-15T08:00:07.951Z,43.10
2018-05-15T08:02:36.202Z,44.80
2018-05-15T08:05:03.627Z,44.20
2018-05-15T08:07:31.050Z,45.80
2018-05-15T08:09:59.249Z,43.30
2018-05-15T08:12:26.674Z,43.00
2018-05-15T08:14:54.247Z,43.30
2018-05-15T08:17:22.442Z,41.80
2018-05-15T08:19:49.874Z,41.70
2018-05-15T08:22:18.107Z,40.90
2018-05-15T08:24:45.494Z,41.00
2018-05-15T08:27:12.927Z,41.80
2018-05-15T08:29:41.126Z,39.60
2018-05-15T08:32:09.318Z,38.90
2018-05-15T08:34:37.515Z,38.80
2018-05-15T08:37:05.303Z,38.70
2018-05-15T08:39:32.728Z,38.90
2018-05-15T08:42:00.158Z,42.90
2018-05-15T08:44:27.670Z,43.60
2018-05-15T08:46:55.111Z,41.80
2018-05-15T08:49:22.539Z,40.30
2018-05-15T08:51:50.742Z,40.90
2018-05-15T08:54:18.350Z,40.90
2018-05-15T08:56:45.782Z,38.20
2018-05-15T08:59:13.208Z,38.90
2018-05-15T09:01:41.398Z,36.40
2018-05-15T09:04:08.864Z,36.40
2018-05-15T09:06:36.355Z,37.90
2018-05-15T09:09:03.801Z,35.30
2018-05-15T09:11:31.294Z,36.30
2018-05-15T09:13:58.716Z,35.70
2018-05-15T09:16:26.147Z,41.30
2018-05-15T09:18:53.594Z,39.10
2018-05-15T09:21:21.034Z,37.80
2018-05-15T09:23:49.249Z,34.50
2018-05-15T09:26:16.695Z,34.40
2018-05-15T09:28:44.171Z,33.00
2018-05-15T09:31:12.554Z,34.30
2018-05-15T09:33:40.002Z,34.70
2018-05-15T09:36:07.411Z,36.10
2018-05-15T09:38:34.838Z,36.10
2018-05-15T09:41:03.458Z,34.10
2018-05-15T09:43:54.494Z,29.80
2018-05-15T09:46:21.957Z,29.80
2018-05-15T09:48:50.144Z,29.90
2018-05-15T09:51:17.706Z,29.90
2018-05-15T09:53:45.190Z,31.00
2018-05-15T09:56:12.615Z,29.50
2018-05-15T09:58:40.385Z,30.70
2018-05-15T10:01:07.854Z,32.30
2018-05-15T10:03:35.286Z,31.60
2018-05-15T10:06:02.706Z,31.20
2018-05-15T10:08:31.778Z,28.80
2018-05-15T10:10:59.219Z,29.00
2018-05-15T10:13:26.639Z,28.80
2018-05-15T10:15:54.850Z,30.30
2018-05-15T10:18:22.281Z,30.40
2018-05-15T10:20:50.586Z,29.50
2018-05-15T10:23:18.088Z,29.50
2018-05-15T10:25:45.510Z,30.90
2018-05-15T10:28:12.931Z,30.10
2018-05-15T10:30:41.278Z,29.00
2018-05-15T10:33:08.702Z,29.20
2018-05-15T10:35:36.575Z,29.10
2018-05-15T10:38:04.283Z,27.80
2018-05-15T10:40:32.478Z,26.10
2018-05-15T10:42:59.902Z,26.00
2018-05-15T10:45:27.862Z,27.20
2018-05-15T10:47:55.292Z,28.00
2018-05-15T10:50:22.795Z,27.40
2018-05-15T10:52:50.306Z,28.70
2018-05-15T10:55:17.740Z,27.60
2018-05-15T10:57:45.254Z,28.70
2018-05-15T11:00:12.692Z,29.90
2018-05-15T11:02:40.111Z,28.10
2018-05-15T11:05:07.570Z,28.10
2018-05-15T11:07:34.993Z,27.90
2018-05-15T11:10:02.454Z,28.10
2018-05-15T11:12:29.990Z,30.00
2018-05-15T11:14:57.525Z,29.60
2018-05-15T11:17:24.941Z,28.50
2018-05-15T11:20:04.913Z,27.90
2018-05-15T11:22:44.454Z,27.80
2018-05-15T11:25:12.037Z,29.20
2018-05-15T11:27:39.458Z,27.50
2018-05-15T11:30:07.680Z,29.80
2018-05-15T11:32:35.099Z,30.00
2018-05-15T11:35:03.286Z,27.20
2018-05-15T11:37:30.730Z,27.10
2018-05-15T11:39:58.916Z,29.20
2018-05-15T11:42:26.351Z,29.10
2018-05-15T11:44:54.547Z,29.40
2018-05-15T11:47:22.775Z,27.70
2018-05-15T11:49:50.741Z,27.60
2018-05-15T11:52:19.223Z,27.50
2018-05-15T11:54:45.839Z,27.70
2018-05-15T11:57:13.323Z,28.50
2018-05-15T11:59:40.832Z,30.40
2018-05-15T12:02:08.186Z,29.70
2018-05-15T12:04:36.958Z,28.60
2018-05-15T12:07:05.172Z,28.20
2018-05-15T12:09:32.575Z,28.20
2018-05-15T12:12:00.783Z,28.80
2018-05-15T12:14:28.207Z,28.70
2018-05-15T12:16:55.727Z,28.00
2018-05-15T12:19:23.923Z,29.00
2018-05-15T12:21:51.342Z,28.90
2018-05-15T12:24:18.822Z,29.30
2018-05-15T12:26:46.237Z,30.00
2018-05-15T12:29:14.659Z,27.30
2018-05-15T12:31:42.101Z,27.20
2018-05-15T12:34:09.545Z,28.80
2018-05-15T12:36:36.998Z,27.50
2018-05-15T12:39:04.431Z,28.60
2018-05-15T12:41:32.101Z,27.40
2018-05-15T12:43:59.399Z,29.10
2018-05-15T12:46:26.828Z,28.90
2018-05-15T12:48:55.758Z,30.40
2018-05-15T12:51:23.239Z,30.40
2018-05-15T12:53:50.667Z,31.30
2018-05-15T12:56:18.158Z,28.90
2018-05-15T12:58:45.582Z,28.50
2018-05-15T13:01:13.070Z,32.10
2018-05-15T13:03:40.499Z,29.50
2018-05-15T13:06:07.934Z,29.20
2018-05-15T13:08:35.428Z,28.80
2018-05-15T13:11:02.854Z,29.00
2018-05-15T13:13:30.274Z,28.20
2018-05-15T13:15:57.782Z,29.70
2018-05-15T13:18:25.475Z,30.10
2018-05-15T13:20:52.798Z,29.30
2018-05-15T13:23:20.226Z,30.20
2018-05-15T13:25:48.638Z,29.50
2018-05-15T13:28:16.140Z,29.40
2018-05-15T13:33:23.727Z,33.40
2018-05-15T13:35:51.198Z,33.40
2018-05-15T13:38:18.627Z,32.00
2018-05-15T13:40:46.104Z,31.40
2018-05-15T13:43:13.530Z,32.30
2018-05-15T13:45:40.986Z,32.70
2018-05-15T13:48:08.446Z,33.90
2018-05-15T13:50:35.939Z,32.40
2018-05-15T13:53:03.350Z,34.30
2018-05-15T13:55:31.033Z,32.50
2018-05-15T13:57:58.603Z,32.80
2018-05-15T14:00:26.026Z,33.10
2018-05-15T14:02:54.743Z,33.10
2018-05-15T14:05:22.166Z,32.40
2018-05-15T14:07:50.350Z,34.10
2018-05-15T14:10:17.835Z,34.10
2018-05-15T14:12:45.267Z,33.70
2018-05-15T14:15:12.690Z,32.20
2018-05-15T14:17:40.214Z,32.70
2018-05-15T14:20:08.402Z,34.30
2018-05-15T14:22:35.986Z,34.30
2018-05-15T14:25:04.188Z,33.10
2018-05-15T14:27:32.429Z,33.30
2018-05-15T14:30:00.135Z,33.20
2018-05-15T14:32:28.313Z,35.30
2018-05-15T14:34:55.742Z,35.20
2018-05-15T14:37:23.451Z,34.80
2018-05-15T14:39:50.874Z,36.50
2018-05-15T14:42:31.113Z,36.00
2018-05-15T14:44:59.326Z,35.60
2018-05-15T14:47:26.907Z,34.80
2018-05-15T14:49:54.330Z,33.60
2018-05-15T14:52:22.563Z,36.90
2018-05-15T14:54:50.011Z,37.00
2018-05-15T14:57:17.447Z,34.50
2018-05-15T14:59:44.910Z,36.00
2018-05-15T15:02:12.987Z,35.10
2018-05-15T15:04:41.415Z,35.80
2018-05-15T15:07:09.606Z,34.30
2018-05-15T15:09:37.795Z,35.50
2018-05-15T15:12:05.273Z,35.70
2018-05-15T15:14:32.836Z,35.50
2018-05-15T15:17:00.274Z,35.50
2018-05-15T15:19:27.870Z,35.10
2018-05-15T15:21:55.307Z,34.60
2018-05-15T15:24:22.745Z,36.10
2018-05-15T15:26:50.237Z,36.70
2018-05-15T15:29:17.701Z,36.90
2018-05-15T15:31:45.122Z,36.70
2018-05-15T15:34:12.577Z,36.80
2018-05-15T15:36:40.010Z,36.10
2018-05-15T15:39:08.479Z,35.80
2018-05-15T15:41:36.681Z,36.50
2018-05-15T15:44:04.088Z,36.50
2018-05-15T15:46:31.522Z,35.80
2018-05-15T15:48:58.948Z,37.10
2018-05-15T15:51:27.199Z,36.90
2018-05-15T15:53:54.730Z,37.00
2018-05-15T15:56:22.158Z,36.20
2018-05-15T15:58:49.581Z,36.60
2018-05-15T16:01:17.007Z,38.30
2018-05-15T16:03:44.757Z,37.80
2018-05-15T16:06:12.259Z,39.50
2018-05-15T16:08:39.706Z,39.10
2018-05-15T16:11:07.164Z,38.80
2018-05-15T16:13:35.415Z,39.40
2018-05-15T16:16:02.906Z,40.10
2018-05-15T16:18:30.345Z,41.20
2018-05-15T16:20:57.785Z,39.10
2018-05-15T16:23:31.111Z,41.00
2018-05-15T16:25:58.690Z,41.60
2018-05-15T16:28:26.114Z,41.30
2018-05-15T16:30:53.543Z,40.20
2018-05-15T16:33:21.847Z,42.80
2018-05-15T16:35:50.430Z,41.60
2018-05-15T16:38:17.976Z,41.10
2018-05-15T16:40:46.469Z,40.80
2018-05-15T16:43:14.863Z,41.60
2018-05-15T16:45:42.309Z,40.70
2018-05-15T16:48:09.740Z,40.90
2018-05-15T16:50:39.281Z,40.30
2018-05-15T16:53:06.826Z,40.00
2018-05-15T16:55:35.846Z,40.20
2018-05-15T16:58:03.254Z,41.90
2018-05-15T17:00:32.327Z,40.70
2018-05-15T17:03:00.524Z,40.30
2018-05-15T17:05:28.858Z,40.30
2018-05-15T17:08:02.273Z,42.00
2018-05-15T17:10:30.576Z,42.50
2018-05-15T17:12:59.086Z,42.50
2018-05-15T17:15:28.435Z,43.40
2018-05-15T17:17:55.860Z,43.90
2018-05-15T17:20:23.503Z,44.70
2018-05-15T17:22:51.114Z,45.50
2018-05-15T17:25:19.314Z,44.60
2018-05-15T17:27:47.678Z,45.00
2018-05-15T17:30:15.866Z,46.30
2018-05-15T17:32:43.288Z,46.20
2018-05-15T17:35:10.733Z,46.30
2018-05-15T17:37:38.167Z,46.80
2018-05-15T17:40:05.639Z,46.80
2018-05-15T17:42:34.723Z,48.20
2018-05-15T17:45:03.062Z,47.60
2018-05-15T17:47:31.361Z,49.50
2018-05-15T17:49:58.682Z,49.50
2018-05-15T17:52:27.225Z,48.00
2018-05-15T17:54:55.315Z,47.90
2018-05-15T17:57:23.078Z,46.50
2018-05-15T17:59:50.574Z,46.40
2018-05-15T18:02:17.975Z,46.70
2018-05-15T18:04:45.455Z,47.20
2018-05-15T18:07:13.012Z,47.40
2018-05-15T18:09:40.435Z,48.10
2018-05-15T18:12:07.931Z,48.50
2018-05-15T18:14:35.413Z,48.60
2018-05-15T18:17:03.603Z,49.20
2018-05-15T18:19:31.913Z,49.50
2018-05-15T18:22:00.036Z,49.40
2018-05-15T18:24:27.450Z,50.70
2018-05-15T18:26:54.883Z,51.70
2018-05-15T18:29:22.310Z,50.80
2018-05-15T18:31:51.498Z,50.50
2018-05-15T18:34:19.759Z,50.20
2018-05-15T18:36:49.936Z,50.20
2018-05-15T18:39:19.366Z,50.20
2018-05-15T18:41:46.798Z,49.60
2018-05-15T18:44:14.295Z,50.20
2018-05-15T18:46:41.733Z,50.40
2018-05-15T18:49:09.158Z,50.20
2018-05-15T18:51:37.350Z,50.80
2018-05-15T18:54:05.041Z,50.70
2018-05-15T18:56:32.478Z,51.00
2018-05-15T18:59:00.802Z,51.30
2018-05-15T19:01:28.703Z,51.20
2018-05-15T19:04:10.155Z,51.40
2018-05-15T19:06:37.689Z,51.30
2018-05-15T19:09:06.020Z,53.10
2018-05-15T19:11:34.218Z,52.10
2018-05-15T19:14:01.920Z,52.00
2018-05-15T19:16:30.046Z,53.10
2018-05-15T19:18:57.503Z,53.10
2018-05-15T19:21:24.985Z,52.40
2018-05-15T19:23:52.415Z,53.40
2018-05-15T19:26:19.859Z,52.50
2018-05-15T19:28:48.073Z,52.20
2018-05-15T19:31:16.287Z,52.20
2018-05-15T19:33:49.449Z,53.40
2018-05-15T19:36:16.875Z,51.80
2018-05-15T19:38:44.776Z,52.90
2018-05-15T19:41:18.019Z,52.40
2018-05-15T19:43:46.444Z,53.60
2018-05-15T19:46:14.062Z,53.60
2018-05-15T19:48:42.327Z,53.30
2018-05-15T19:51:10.153Z,53.10
2018-05-15T19:53:37.583Z,53.00
2018-05-15T19:56:06.326Z,53.70
2018-05-15T19:58:35.266Z,53.70
2018-05-15T20:01:02.690Z,53.70
2018-05-15T20:03:30.122Z,54.30
2018-05-15T20:05:57.766Z,54.60
2018-05-15T20:08:25.195Z,53.60
2018-05-15T20:10:52.676Z,54.30
2018-05-15T20:13:20.086Z,55.00
2018-05-15T20:15:48.274Z,55.00
2018-05-15T20:18:16.471Z,54.90
2018-05-15T20:20:43.942Z,54.90
2018-05-15T20:23:11.373Z,54.90
2018-05-15T20:25:38.875Z,55.00
2018-05-15T20:28:06.334Z,55.80
2018-05-15T20:30:33.764Z,55.10
2018-05-15T20:33:01.191Z,56.20
2018-05-15T20:35:29.384Z,55.80
2018-05-15T20:37:56.819Z,55.80
2018-05-15T20:40:25.016Z,56.30
2018-05-15T20:42:52.501Z,56.20
2018-05-15T20:45:20.110Z,56.20
2018-05-15T20:47:48.298Z,56.90
2018-05-15T20:50:16.481Z,56.60
2018-05-15T20:52:43.971Z,56.60
2018-05-15T20:55:11.399Z,56.80
2018-05-15T20:57:38.825Z,57.00
2018-05-15T21:00:06.255Z,57.20
2018-05-15T21:02:33.690Z,58.00
2018-05-15T21:05:01.119Z,57.90
2018-05-15T21:07:29.302Z,58.10
2018-05-15T21:09:57.092Z,58.10
2018-05-15T21:12:24.518Z,58.80
2018-05-15T21:14:52.728Z,59.10
2018-05-15T21:17:20.198Z,59.10
2018-05-15T21:19:47.628Z,59.10
2018-05-15T21:22:15.050Z,59.10
2018-05-15T21:24:43.518Z,59.70
2018-05-15T21:27:11.108Z,59.70
2018-05-15T21:29:39.298Z,60.10
2018-05-15T21:32:06.810Z,59.90
2018-05-15T21:34:34.245Z,59.80
2018-05-15T21:37:02.435Z,60.00
2018-05-15T21:39:29.863Z,59.80
2018-05-15T21:41:57.292Z,60.30
2018-05-15T21:44:25.475Z,61.20
2018-05-15T21:46:52.931Z,61.10
2018-05-15T21:49:20.367Z,62.00
2018-05-15T21:51:48.682Z,60.90
2018-05-15T21:54:16.110Z,60.80
2018-05-15T21:56:44.316Z,61.20
2018-05-15T21:59:11.983Z,61.20
2018-05-15T22:01:39.408Z,61.40
2018-05-15T22:04:06.856Z,61.20
2018-05-15T22:06:35.178Z,61.40
2018-05-15T22:09:02.603Z,61.30
2018-05-15T22:11:29.571Z,62.40
2018-05-15T22:14:08.882Z,62.60
2018-05-15T22:16:48.327Z,62.30
2018-05-15T22:19:27.901Z,63.20
2018-05-15T22:22:07.158Z,62.40
2018-05-15T22:24:34.598Z,63.30
2018-05-15T22:27:02.013Z,63.40
2018-05-15T22:29:29.439Z,64.00
2018-05-15T22:31:56.954Z,63.90
2018-05-15T22:34:24.370Z,63.80
2018-05-15T22:36:52.558Z,64.00
2018-05-15T22:39:20.124Z,64.00
2018-05-15T22:41:47.535Z,64.70
2018-05-15T22:44:14.966Z,64.60
2018-05-15T22:46:42.394Z,65.40
2018-05-15T22:49:09.876Z,65.40
2018-05-15T22:51:37.298Z,65.90
2018-05-15T22:54:05.594Z,67.00
2018-05-15T22:56:33.017Z,67.10
2018-05-15T22:59:01.204Z,68.20
2018-05-15T23:01:29.401Z,68.30
2018-05-15T23:03:56.854Z,68.20
2018-05-15T23:06:24.587Z,68.20
2018-05-15T23:08:52.110Z,68.70
2018-05-15T23:11:19.572Z,69.50
2018-05-15T23:13:47.014Z,70.90
2018-05-15T23:16:14.435Z,70.70
2018-05-15T23:18:42.815Z,71.30
2018-05-15T23:21:11.004Z,71.90
2018-05-15T23:23:38.467Z,71.80
2018-05-15T23:26:05.907Z,72.00
2018-05-15T23:28:34.124Z,73.00
2018-05-15T23:31:01.602Z,72.90
2018-05-15T23:33:29.109Z,72.90
2018-05-15T23:35:57.297Z,74.10
2018-05-15T23:38:24.710Z,74.00
2018-05-15T23:40:52.909Z,73.00
2018-05-15T23:43:21.226Z,73.00
2018-05-15T23:45:48.675Z,73.00
2018-05-15T23:48:16.138Z,72.60
2018-05-15T23:50:43.571Z,73.10
2018-05-15T23:53:11.050Z,72.70
2018-05-15T23:55:38.574Z,73.10
2018-05-15T23:58:06.791Z,73.10
